Time;durP1;ratioP1;P1;durP2;ratioP2;P2;SDS_P1;SDS_P2;PMS_P1;PMS_P2;Temp;Humidity;BMP_temperature;BMP_pressure;BME280_temperature;BME280_humidity;BME280_pressure;Samples;Min_cycle;Max_cycle;Signal;HPM_P1;HPM_P2
2022/04/30 00:01:26;;;;;;;28.77;10.68;;;;;;;6.20;92.18;103188.22;7379852;19;20338;-67
2022/04/30 00:03:56;;;;;;;29.05;10.23;;;;;;;6.14;92.20;103181.69;7380920;19;20017;-77
2022/04/30 00:06:29;;;;;;;29.85;10.05;;;;;;;6.06;92.28;103191.56;7383097;19;20489;-76
2022/04/30 00:08:59;;;;;;;28.23;10.25;;;;;;;6.01;93.20;103184.25;7381247;19;20018;-69
2022/04/30 00:11:29;;;;;;;28.77;10.00;;;;;;;5.98;93.07;103179.72;7379472;19;20577;-67
2022/04/30 00:13:59;;;;;;;27.80;10.15;;;;;;;5.98;93.13;103186.63;7379676;19;20384;-76
2022/04/30 00:16:29;;;;;;;27.42;11.05;;;;;;;5.94;93.44;103179.41;7381558;19;20014;-76
2022/04/30 00:19:02;;;;;;;29.20;10.90;;;;;;;5.87;94.02;103186.75;7378699;19;20514;-76
2022/04/30 00:21:36;;;;;;;27.85;10.07;;;;;;;5.86;93.93;103184.06;7382551;19;20046;-77
2022/04/30 00:24:06;;;;;;;26.35;10.65;;;;;;;5.86;94.31;103189.25;7382119;19;20050;-75
2022/04/30 00:26:36;;;;;;;22.35;9.45;;;;;;;5.85;93.99;103187.44;7383106;19;20007;-76
2022/04/30 00:29:07;;;;;;;28.08;10.05;;;;;;;5.76;94.53;103184.19;7381601;19;20106;-76
2022/04/30 00:31:37;;;;;;;22.73;9.65;;;;;;;5.73;94.83;103181.38;7383177;19;20039;-76
2022/04/30 00:34:08;;;;;;;22.60;8.75;;;;;;;5.69;95.00;103180.28;7381782;19;20006;-76
2022/04/30 00:36:41;;;;;;;27.38;10.60;;;;;;;5.66;95.29;103180.06;7384256;19;20011;-76
2022/04/30 00:39:11;;;;;;;24.05;9.48;;;;;;;5.63;94.54;103178.94;7383310;19;20590;-76
2022/04/30 00:41:44;;;;;;;24.60;10.40;;;;;;;5.56;95.36;103178.50;7387741;19;20521;-76
2022/04/30 00:44:19;;;;;;;24.55;8.98;;;;;;;5.54;95.70;103177.50;7384791;19;20038;-76
2022/04/30 00:46:52;;;;;;;23.42;8.98;;;;;;;5.52;96.05;103179.06;7388384;19;20055;-77
2022/04/30 00:49:25;;;;;;;25.27;10.88;;;;;;;5.49;96.38;103177.97;7386578;19;20007;-69
2022/04/30 00:52:04;;;;;;;26.95;8.93;;;;;;;5.48;96.12;103169.25;7383404;19;20023;-69
2022/04/30 00:54:40;;;;;;;26.83;9.65;;;;;;;5.45;96.12;103176.84;7381878;19;20018;-69
2022/04/30 00:57:14;;;;;;;24.77;9.85;;;;;;;5.42;96.32;103168.81;7380488;19;20514;-69
2022/04/30 00:59:47;;;;;;;21.73;9.20;;;;;;;5.42;95.59;103168.81;7381576;19;20050;-70
2022/04/30 01:02:19;;;;;;;;;;;;;;;5.37;95.72;103164.06;7379360;19;20011;-68
2022/04/30 01:04:54;;;;;;;26.25;8.43;;;;;;;5.34;96.10;103169.97;7379606;19;19942;-69
2022/04/30 01:07:30;;;;;;;28.48;10.48;;;;;;;5.33;96.21;103167.25;7378096;19;20634;-69
2022/04/30 01:10:03;;;;;;;23.05;9.63;;;;;;;5.32;96.34;103166.34;7379089;19;20078;-69
2022/04/30 01:12:34;;;;;;;38.88;10.60;;;;;;;5.31;96.55;103159.34;7379221;19;20039;-69
2022/04/30 01:15:06;;;;;;;31.25;10.63;;;;;;;5.26;96.16;103159.00;7378269;19;20006;-69
2022/04/30 01:17:39;;;;;;;32.53;10.55;;;;;;;5.25;96.75;103161.50;7378156;19;20065;-69
2022/04/30 01:20:11;;;;;;;23.55;9.93;;;;;;;5.23;96.79;103157.88;7377707;19;20478;-68
2022/04/30 01:22:58;;;;;;;25.70;9.23;;;;;;;5.23;97.23;103150.97;7377886;19;20423;-69
2022/04/30 01:25:34;;;;;;;30.55;11.05;;;;;;;5.22;97.13;103153.47;7379330;19;20013;-69
2022/04/30 01:28:04;;;;;;;30.50;10.80;;;;;;;5.23;97.61;103155.28;7387492;19;20018;-69
2022/04/30 01:30:34;;;;;;;33.78;10.68;;;;;;;5.24;97.93;103150.19;7385457;19;20593;-69
2022/04/30 01:38:32;;;;;;;26.77;10.20;;;;;;;5.25;97.84;103140.69;7385348;19;20019;-69
2022/04/30 01:41:04;;;;;;;27.80;10.50;;;;;;;5.24;97.88;103134.56;7386179;19;20010;-68
2022/04/30 01:43:36;;;;;;;29.15;10.02;;;;;;;5.25;98.11;103132.88;7387036;19;20047;-76
2022/04/30 01:46:07;;;;;;;26.80;9.85;;;;;;;5.31;98.01;103129.81;7387977;19;20332;-76
2022/04/30 01:48:39;;;;;;;24.45;9.75;;;;;;;5.32;97.79;103137.72;7388027;19;20400;-76
2022/04/30 01:51:15;;;;;;;25.80;11.13;;;;;;;5.32;98.11;103129.91;7387218;19;20017;-76
2022/04/30 01:53:53;;;;;;;24.17;10.45;;;;;;;5.35;97.93;103131.84;7381146;19;20344;-76
2022/04/30 01:56:26;;;;;;;25.50;9.35;;;;;;;5.36;98.20;103124.13;7384423;19;20252;-75
2022/04/30 01:58:56;;;;;;;19.67;9.10;;;;;;;5.41;97.82;103132.28;7387514;19;20200;-76
2022/04/30 02:01:26;;;;;;;25.60;10.27;;;;;;;5.43;97.27;103128.97;7384542;19;20015;-76
2022/04/30 02:03:56;;;;;;;22.83;10.38;;;;;;;5.39;97.15;103129.56;7382875;19;20017;-75
2022/04/30 02:06:27;;;;;;;23.00;10.52;;;;;;;5.40;96.88;103131.38;7385749;19;20086;-75
2022/04/30 02:08:59;;;;;;;24.15;8.90;;;;;;;5.51;96.61;103126.91;7384231;19;20684;-75
2022/04/30 02:11:30;;;;;;;27.17;10.15;;;;;;;5.52;96.07;103119.22;7384802;19;20042;-75
2022/04/30 02:14:04;;;;;;;22.20;9.23;;;;;;;5.51;95.49;103122.63;7385298;19;20018;-75
2022/04/30 02:16:35;;;;;;;22.75;9.77;;;;;;;5.51;95.64;103108.69;7388269;19;20015;-76
2022/04/30 02:19:09;;;;;;;19.95;8.40;;;;;;;5.49;95.60;103111.19;7385700;19;20025;-76
2022/04/30 02:21:39;;;;;;;25.77;10.20;;;;;;;5.46;95.52;103110.06;7387398;19;20014;-76
2022/04/30 02:24:13;;;;;;;23.73;9.48;;;;;;;5.47;95.54;103115.38;7387029;19;20010;-76
2022/04/30 02:26:44;;;;;;;22.45;9.65;;;;;;;5.48;95.78;103111.97;7384563;19;20060;-76
2022/04/30 02:29:14;;;;;;;22.10;9.40;;;;;;;5.52;95.55;103116.59;7387475;19;20022;-76
2022/04/30 02:31:45;;;;;;;21.38;9.30;;;;;;;5.60;95.52;103114.53;7383644;19;20025;-76
2022/04/30 02:34:18;;;;;;;25.38;9.98;;;;;;;5.62;95.53;103104.25;7385059;19;20024;-76
2022/04/30 02:36:50;;;;;;;22.63;9.52;;;;;;;5.71;95.26;103107.47;7384101;19;20014;-76
2022/04/30 02:39:23;;;;;;;32.28;10.75;;;;;;;5.77;95.26;103105.28;7382474;19;20494;-76
2022/04/30 02:41:53;;;;;;;;;;;;;;;5.90;94.59;103107.97;7384947;19;20015;-76
2022/04/30 02:44:26;;;;;;;26.23;9.73;;;;;;;5.92;94.00;103100.25;7383590;19;20339;-76
2022/04/30 02:46:56;;;;;;;26.08;10.52;;;;;;;5.91;93.79;103099.38;7384215;19;20007;-76
2022/04/30 02:49:26;;;;;;;20.52;9.40;;;;;;;5.92;93.72;103103.78;7383618;19;20007;-76
2022/04/30 02:51:56;;;;;;;23.17;10.10;;;;;;;5.98;93.64;103098.06;7382452;19;20025;-76
2022/04/30 02:54:30;;;;;;;20.23;9.05;;;;;;;6.05;93.44;103101.19;7381051;19;20006;-76
2022/04/30 02:57:00;;;;;;;21.98;8.98;;;;;;;6.03;93.30;103100.19;7382920;19;20420;-76
2022/04/30 03:02:12;;;;;;;21.10;9.40;;;;;;;6.12;92.77;103093.00;7381597;19;20011;-76
2022/04/30 03:04:42;;;;;;;22.10;9.13;;;;;;;6.16;92.57;103089.81;7384193;19;20022;-76
2022/04/30 03:07:15;;;;;;;21.77;8.40;;;;;;;6.21;92.28;103091.00;7383304;19;20013;-76
2022/04/30 03:09:51;;;;;;;18.35;8.55;;;;;;;6.22;91.95;103090.22;7385661;19;20091;-75
2022/04/30 03:12:22;;;;;;;16.85;7.78;;;;;;;6.24;91.94;103091.19;7382100;19;20010;-75
2022/04/30 03:14:52;;;;;;;19.98;8.27;;;;;;;6.29;92.36;103082.75;7383605;19;20299;-75
2022/04/30 03:23:02;;;;;;;17.75;7.57;;;;;;;6.34;91.90;103076.16;7381565;19;20011;-75
2022/04/30 03:25:34;;;;;;;19.67;8.40;;;;;;;6.34;91.78;103074.44;7385047;19;20042;-75
2022/04/30 03:28:04;;;;;;;13.18;7.40;;;;;;;6.35;91.40;103075.34;7382171;19;20063;-75
2022/04/30 03:30:34;;;;;;;15.52;6.85;;;;;;;6.39;91.45;103073.03;7383588;19;21085;-75
2022/04/30 03:33:08;;;;;;;14.20;7.40;;;;;;;6.42;91.28;103069.75;7381286;19;20015;-76
2022/04/30 03:35:41;;;;;;;15.18;6.97;;;;;;;6.41;90.94;103066.22;7385945;19;20567;-76
2022/04/30 03:38:13;;;;;;;14.65;7.82;;;;;;;6.49;91.50;103067.63;7386460;19;20039;-75
2022/04/30 03:40:49;;;;;;;16.08;7.18;;;;;;;6.54;91.33;103068.84;7384935;19;20011;-75
2022/04/30 03:43:22;;;;;;;14.23;6.72;;;;;;;6.59;91.23;103060.41;7384059;19;20018;-76
2022/04/30 03:45:52;;;;;;;;;;;;;;;6.60;90.89;103063.13;7385575;19;20014;-76
2022/04/30 03:48:22;;;;;;;14.00;6.68;;;;;;;6.62;90.54;103053.69;7384438;19;19979;-75
2022/04/30 03:50:52;;;;;;;14.85;6.40;;;;;;;6.62;90.73;103053.69;7386406;19;20011;-68
2022/04/30 03:53:22;;;;;;;12.52;6.28;;;;;;;6.66;90.63;103046.97;7380967;19;20869;-68
2022/04/30 03:55:57;;;;;;;15.20;6.95;;;;;;;6.74;90.36;103053.56;7386390;19;20034;-68
2022/04/30 03:58:27;;;;;;;11.68;6.35;;;;;;;6.75;90.21;103048.47;7384645;19;20010;-68
2022/04/30 04:00:57;;;;;;;12.50;6.03;;;;;;;6.79;90.42;103042.63;7384969;19;20010;-68
2022/04/30 04:03:27;;;;;;;15.25;6.32;;;;;;;6.81;90.13;103035.81;7382602;19;20006;-68
2022/04/30 04:05:57;;;;;;;13.75;6.38;;;;;;;6.82;89.87;103045.44;7385606;19;20011;-69
2022/04/30 04:08:29;;;;;;;12.82;6.28;;;;;;;6.86;90.03;103044.81;7381411;19;20011;-69
2022/04/30 04:11:02;;;;;;;13.50;6.40;;;;;;;6.87;90.07;103046.63;7384863;19;20132;-76
2022/04/30 04:18:56;;;;;;;11.98;6.55;;;;;;;6.94;90.30;103060.06;7382365;19;20018;-77
2022/04/30 04:21:26;;;;;;;13.68;6.82;;;;;;;6.95;90.14;103061.88;7381559;19;20023;-77
2022/04/30 04:26:41;;;;;;;14.98;6.60;;;;;;;6.94;89.63;103066.19;7382366;19;20006;-76
2022/04/30 04:29:13;;;;;;;13.15;6.90;;;;;;;6.94;89.63;103067.88;7381091;19;20006;-75
2022/04/30 04:31:43;;;;;;;13.23;7.50;;;;;;;6.92;89.71;103059.97;7378863;19;20474;-75
2022/04/30 04:34:19;;;;;;;12.38;6.45;;;;;;;6.94;89.90;103063.56;7380415;19;20014;-75
2022/04/30 04:36:50;;;;;;;16.45;7.35;;;;;;;6.91;89.95;103071.19;7378256;19;20019;-68
2022/04/30 04:39:21;;;;;;;15.48;7.90;;;;;;;6.96;90.20;103066.28;7378321;19;20046;-69
2022/04/30 04:41:54;;;;;;;15.73;7.55;;;;;;;6.95;90.19;103074.91;7380625;19;20073;-76
2022/04/30 04:44:26;;;;;;;15.93;7.88;;;;;;;6.95;90.09;103072.31;7380366;19;20042;-75
2022/04/30 04:46:56;;;;;;;17.13;7.63;;;;;;;6.93;90.64;103066.09;7379756;19;20023;-75
2022/04/30 04:49:26;;;;;;;14.68;7.03;;;;;;;6.94;90.11;103062.66;7380160;19;20495;-75
2022/04/30 04:51:56;;;;;;;13.95;7.25;;;;;;;6.94;90.40;103075.72;7378816;19;20039;-75
2022/04/30 04:54:26;;;;;;;14.35;7.53;;;;;;;6.94;90.53;103075.72;7374532;19;21231;-69
2022/04/30 04:56:58;;;;;;;16.45;8.02;;;;;;;6.95;90.26;103080.13;7377540;19;20022;-69
2022/04/30 04:59:28;;;;;;;13.82;6.80;;;;;;;6.97;90.50;103084.63;7376149;19;20011;-69
2022/04/30 05:01:59;;;;;;;11.52;6.93;;;;;;;6.99;90.69;103080.41;7376055;19;20011;-69
2022/04/30 05:04:29;;;;;;;12.50;6.85;;;;;;;7.02;90.18;103082.31;7377492;19;20064;-68
2022/04/30 05:06:59;;;;;;;14.75;6.95;;;;;;;7.01;90.33;103083.13;7380063;19;20144;-69
2022/04/30 05:09:30;;;;;;;12.15;6.32;;;;;;;7.03;90.24;103086.72;7377005;19;20045;-69
2022/04/30 05:12:03;;;;;;;12.90;6.68;;;;;;;7.03;90.12;103089.34;7378017;19;20019;-69
2022/04/30 05:14:34;;;;;;;15.85;7.07;;;;;;;7.04;90.29;103091.16;7376750;19;20006;-69
2022/04/30 05:17:06;;;;;;;12.10;6.72;;;;;;;7.02;91.08;103083.22;7376318;19;20389;-69
2022/04/30 05:19:37;;;;;;;14.82;6.85;;;;;;;7.04;90.82;103086.81;7380093;19;20673;-70
2022/04/30 05:22:07;;;;;;;14.85;6.65;;;;;;;7.05;90.65;103087.72;7379455;19;20045;-68
2022/04/30 05:24:37;;;;;;;15.98;7.32;;;;;;;7.03;90.77;103092.84;7377983;19;20050;-71
2022/04/30 05:27:12;;;;;;;12.50;7.72;;;;;;;7.09;90.68;103094.94;7377911;19;20070;-68
2022/04/30 05:29:42;;;;;;;13.25;6.90;;;;;;;7.11;90.74;103095.94;7377543;19;20014;-69
2022/04/30 05:32:12;;;;;;;14.23;6.95;;;;;;;7.14;90.20;103088.31;7378009;19;20026;-70
2022/04/30 05:34:43;;;;;;;15.65;6.63;;;;;;;7.14;90.55;103083.09;7378373;19;20011;-71
2022/04/30 05:37:13;;;;;;;12.00;6.13;;;;;;;7.14;89.89;103085.69;7376668;19;20043;-69
2022/04/30 05:39:43;;;;;;;11.35;6.47;;;;;;;7.16;90.21;103086.69;7378554;19;20014;-70
2022/04/30 05:42:17;;;;;;;10.35;6.18;;;;;;;7.19;90.28;103090.41;7377662;19;20025;-69
2022/04/30 05:44:47;;;;;;;;;;;;;;;7.22;90.20;103081.88;7378805;19;20022;-69
2022/04/30 05:47:19;;;;;;;11.10;6.70;;;;;;;7.24;90.02;103082.88;7377958;19;19988;-68
2022/04/30 05:49:52;;;;;;;15.48;7.38;;;;;;;7.27;90.20;103084.75;7376948;19;20011;-69
2022/04/30 05:52:22;;;;;;;13.88;6.55;;;;;;;7.26;90.04;103081.25;7374587;19;20044;-69
2022/04/30 05:54:51;;;;;;;13.27;7.63;;;;;;;7.26;90.43;103077.75;7375565;19;20075;-69
2022/04/30 05:57:27;;;;;;;12.23;6.55;;;;;;;7.32;89.89;103073.75;7376164;19;20003;-70
2022/04/30 05:59:58;;;;;;;12.98;6.53;;;;;;;7.31;89.97;103081.50;7377808;19;20011;-69
2022/04/30 06:02:30;;;;;;;14.77;7.57;;;;;;;7.41;90.68;103073.44;7377226;19;20013;-68
2022/04/30 06:05:01;;;;;;;15.65;7.10;;;;;;;7.43;90.33;103077.94;7375978;19;20041;-69
2022/04/30 06:07:30;;;;;;;14.07;6.88;;;;;;;7.42;90.22;103076.13;7376404;19;20014;-69
2022/04/30 06:10:00;;;;;;;22.13;9.10;;;;;;;7.45;90.08;103071.09;7376952;19;20520;-68
2022/04/30 06:12:33;;;;;;;16.33;6.72;;;;;;;7.44;89.77;103084.06;7380383;19;20107;-70
2022/04/30 06:15:03;;;;;;;16.80;7.43;;;;;;;7.50;89.37;103081.84;7383205;19;20102;-69
2022/04/30 06:17:34;;;;;;;13.98;6.90;;;;;;;7.47;89.26;103079.94;7383044;19;20467;-69
2022/04/30 06:20:04;;;;;;;14.65;7.80;;;;;;;7.57;89.16;103078.78;7384526;19;20007;-69
2022/04/30 06:22:34;;;;;;;15.60;7.95;;;;;;;7.61;89.26;103082.50;7382048;19;21383;-70
2022/04/30 06:25:04;;;;;;;13.82;6.45;;;;;;;7.67;90.02;103086.38;7383490;19;20003;-68
2022/04/30 06:27:37;;;;;;;13.05;6.35;;;;;;;7.81;89.94;103082.88;7384828;19;20738;-69
2022/04/30 06:30:12;;;;;;;15.77;7.35;;;;;;;7.90;88.79;103082.53;7385213;19;20011;-69
2022/04/30 06:32:47;;;;;;;17.33;7.55;;;;;;;7.86;88.56;103091.00;7383635;19;20321;-69
2022/04/30 06:35:17;;;;;;;13.43;6.90;;;;;;;7.85;87.71;103083.97;7384273;19;20486;-69
2022/04/30 06:37:47;;;;;;;15.65;6.88;;;;;;;7.94;87.97;103087.13;7380548;19;20007;-70
2022/04/30 06:40:20;;;;;;;17.88;8.73;;;;;;;7.89;87.69;103091.19;7382573;19;20014;-77
2022/04/30 06:42:55;;;;;;;17.77;7.63;;;;;;;7.91;87.76;103084.34;7384418;19;20711;-71
2022/04/30 06:45:32;;;;;;;12.07;7.07;;;;;;;7.90;87.81;103087.75;7381523;19;20007;-69
2022/04/30 06:48:02;;;;;;;15.23;7.97;;;;;;;7.98;88.23;103090.84;7384620;19;20021;-69
2022/04/30 06:50:32;;;;;;;14.85;7.63;;;;;;;8.02;88.19;103082.38;7384130;19;20011;-69
2022/04/30 06:58:40;;;;;;;13.77;7.35;;;;;;;8.09;87.58;103080.22;7382989;19;20027;-69
2022/04/30 07:04:01;;;;;;;12.73;7.00;;;;;;;8.12;87.33;103083.00;7390123;19;20006;-75
2022/04/30 07:06:31;;;;;;;13.25;6.63;;;;;;;8.33;86.91;103079.84;7392290;19;20422;-76
2022/04/30 07:09:01;;;;;;;13.98;6.43;;;;;;;8.34;86.17;103081.63;7389620;19;20015;-69
2022/04/30 07:11:31;;;;;;;13.38;7.03;;;;;;;8.53;86.70;103085.41;7389606;19;20337;-69
2022/04/30 07:14:04;;;;;;;13.80;7.40;;;;;;;8.64;85.27;103072.94;7386379;19;20082;-69
2022/04/30 07:16:34;;;;;;;15.27;7.18;;;;;;;8.63;83.90;103073.75;7388077;19;20007;-77
2022/04/30 07:19:05;;;;;;;13.45;6.85;;;;;;;8.75;84.16;103069.22;7386585;19;20017;-76
2022/04/30 07:21:35;;;;;;;15.52;7.78;;;;;;;8.85;82.97;103082.00;7387455;19;20019;-76
2022/04/30 07:24:05;;;;;;;14.00;6.75;;;;;;;8.90;82.96;103073.50;7383500;19;20038;-76
2022/04/30 07:26:36;;;;;;;18.10;7.60;;;;;;;9.26;82.90;103077.22;7381820;19;20006;-70
2022/04/30 07:29:09;;;;;;;14.35;6.90;;;;;;;9.33;79.87;103080.25;7382629;19;20017;-77
2022/04/30 07:31:39;;;;;;;14.82;6.32;;;;;;;9.34;77.58;103071.59;7380639;19;20023;-70
2022/04/30 07:34:09;;;;;;;9.20;5.97;;;;;;;9.35;76.26;103073.38;7386576;19;20028;-76
2022/04/30 07:36:41;;;;;;;11.27;5.78;;;;;;;9.32;74.29;103070.59;7384719;19;20003;-77
2022/04/30 07:39:11;;;;;;;16.75;6.20;;;;;;;9.41;75.57;103063.22;7382558;19;20101;-76
2022/04/30 07:41:42;;;;;;;11.07;5.68;;;;;;;9.91;75.21;103057.09;7381421;19;20018;-69
2022/04/30 07:44:14;;;;;;;10.13;5.32;;;;;;;10.07;73.18;103059.69;7382700;19;20480;-69
2022/04/30 07:46:44;;;;;;;10.60;6.00;;;;;;;10.29;70.85;103063.41;7381256;19;20487;-69
2022/04/30 07:49:17;;;;;;;8.63;5.25;;;;;;;10.48;68.66;103058.22;7381402;19;20013;-69
2022/04/30 07:51:53;;;;;;;12.57;5.18;;;;;;;10.47;67.60;103059.03;7379109;19;20017;-69
2022/04/30 07:54:25;;;;;;;10.02;5.40;;;;;;;10.97;66.95;103050.97;7379474;19;20113;-71
2022/04/30 07:56:56;;;;;;;16.85;6.30;;;;;;;11.59;64.18;103052.88;7379247;19;20018;-69
2022/04/30 07:59:29;;;;;;;11.18;6.22;;;;;;;11.30;64.33;103042.84;7380873;19;20018;-77
2022/04/30 08:02:01;;;;;;;9.05;5.38;;;;;;;11.47;61.17;103045.34;7380466;19;20006;-77
2022/04/30 08:04:31;;;;;;;11.80;4.93;;;;;;;11.66;59.92;103044.44;7383570;19;20011;-77
2022/04/30 08:07:02;;;;;;;10.43;4.88;;;;;;;11.77;59.89;103052.84;7379034;19;20533;-69
2022/04/30 08:09:32;;;;;;;10.38;5.30;;;;;;;12.68;58.92;103042.56;7378895;19;20011;-69
2022/04/30 08:12:01;;;;;;;9.38;6.65;;;;;;;12.46;59.02;103042.59;7378711;19;20503;-69
2022/04/30 08:14:34;;;;;;;10.68;5.90;;;;;;;12.19;58.57;103044.97;7374597;19;20028;-69
2022/04/30 08:17:05;;;;;;;11.00;4.80;;;;;;;11.52;60.67;103042.94;7376009;19;20534;-68
2022/04/30 08:19:35;;;;;;;11.05;5.40;;;;;;;10.98;63.01;103046.59;7373747;19;20364;-69
2022/04/30 08:22:19;;;;;;;11.20;5.40;;;;;;;10.67;64.93;103055.66;7375893;19;20470;-69
2022/04/30 08:24:51;;;;;;;11.90;5.30;;;;;;;10.78;64.75;103051.81;7376881;19;20030;-69
2022/04/30 08:27:22;;;;;;;11.60;5.15;;;;;;;10.34;65.85;103059.28;7377783;19;20515;-69
2022/04/30 08:29:55;;;;;;;11.82;5.05;;;;;;;11.03;63.81;103045.09;7379314;19;20507;-69
2022/04/30 08:32:26;;;;;;;7.25;4.13;;;;;;;11.44;60.65;103045.22;7376571;19;20017;-69
2022/04/30 08:34:56;;;;;;;9.68;4.95;;;;;;;11.41;59.63;103033.72;7376785;19;20351;-68
2022/04/30 08:37:27;;;;;;;8.93;4.97;;;;;;;12.46;58.84;103032.97;7372877;19;20424;-68
2022/04/30 08:39:58;;;;;;;8.88;5.05;;;;;;;12.55;56.37;103029.75;7377995;19;20102;-69
2022/04/30 08:42:29;;;;;;;9.23;4.32;;;;;;;12.97;55.72;103030.53;7374972;19;20119;-69
2022/04/30 08:45:04;;;;;;;7.70;4.45;;;;;;;13.34;54.33;103023.22;7378074;19;20391;-69
2022/04/30 08:47:42;;;;;;;10.75;5.05;;;;;;;12.82;56.10;103029.94;7376044;19;20002;-69
2022/04/30 08:50:16;;;;;;;7.32;4.50;;;;;;;12.76;54.98;103030.59;7374318;19;20144;-69
2022/04/30 08:52:48;;;;;;;8.93;4.55;;;;;;;12.83;55.45;103018.59;7375114;19;20014;-69
2022/04/30 08:55:20;;;;;;;7.00;4.65;;;;;;;12.61;55.34;103033.53;7378154;19;20027;-69
2022/04/30 08:57:53;;;;;;;8.43;4.93;;;;;;;11.91;58.32;103033.28;7373578;19;20477;-69
2022/04/30 09:00:26;;;;;;;8.70;4.75;;;;;;;11.57;59.40;103030.91;7379240;19;20014;-69
2022/04/30 09:02:59;;;;;;;7.90;4.60;;;;;;;11.31;58.52;103035.03;7377032;19;20018;-69
2022/04/30 09:05:33;;;;;;;9.45;4.38;;;;;;;10.69;62.48;103037.34;7378702;19;20531;-68
2022/04/30 09:08:03;;;;;;;10.32;5.28;;;;;;;10.73;64.44;103034.06;7372659;19;20022;-69
2022/04/30 09:10:35;;;;;;;9.80;4.88;;;;;;;10.78;65.05;103030.81;7375950;19;20018;-69
2022/04/30 09:13:10;;;;;;;10.85;5.53;;;;;;;10.98;65.43;103022.97;7377207;19;20042;-69
2022/04/30 09:15:44;;;;;;;10.35;4.72;;;;;;;10.92;64.29;103031.47;7376356;19;20006;-69
2022/04/30 09:18:14;;;;;;;10.70;4.97;;;;;;;10.63;66.52;103037.06;7375422;19;20025;-69
2022/04/30 09:20:47;;;;;;;11.82;5.50;;;;;;;10.26;67.36;103037.94;7374754;19;20086;-77
2022/04/30 09:23:27;;;;;;;11.73;5.35;;;;;;;10.62;67.82;103036.16;7374103;19;20400;-76
2022/04/30 09:25:58;;;;;;;9.90;5.43;;;;;;;10.33;68.84;103036.50;7375033;19;20046;-75
2022/04/30 09:28:29;;;;;;;10.05;4.43;;;;;;;10.28;67.46;103031.03;7374692;19;20039;-75
2022/04/30 09:31:09;;;;;;;11.30;4.60;;;;;;;10.22;68.77;103037.69;7375756;19;20014;-74
2022/04/30 09:33:41;;;;;;;9.38;4.97;;;;;;;10.15;67.89;103034.75;7373304;19;20036;-75
2022/04/30 09:38:54;;;;;;;9.15;4.55;;;;;;;10.20;67.12;103031.47;7371895;19;20038;-70
2022/04/30 09:41:26;;;;;;;7.07;3.83;;;;;;;10.50;67.28;103032.94;7374801;19;20025;-69
2022/04/30 09:44:04;;;;;;;7.13;4.13;;;;;;;10.24;67.39;103033.44;7374963;19;20082;-69
2022/04/30 09:46:41;;;;;;;10.43;4.45;;;;;;;10.18;68.77;103035.72;7376988;19;20018;-71
2022/04/30 09:54:44;;;;;;;7.50;3.88;;;;;;;9.71;74.05;103042.97;7380448;19;20336;-69
2022/04/30 09:57:16;;;;;;;8.98;4.45;;;;;;;9.64;79.31;103048.72;7380277;19;20035;-69
2022/04/30 09:59:49;;;;;;;7.25;4.70;;;;;;;9.31;82.31;103044.34;7380402;19;20031;-70
2022/04/30 10:02:22;;;;;;;11.38;4.30;;;;;;;9.27;83.07;103040.66;7380945;19;20384;-69
2022/04/30 10:04:53;;;;;;;9.98;4.85;;;;;;;9.56;85.00;103034.31;7382093;19;20018;-70
2022/04/30 10:07:26;;;;;;;9.70;4.93;;;;;;;9.64;85.22;103030.38;7381345;19;20011;-69
2022/04/30 10:10:09;;;;;;;12.05;5.32;;;;;;;9.64;85.58;103021.59;7382596;19;20044;-69
2022/04/30 10:12:46;;;;;;;10.85;5.35;;;;;;;9.89;86.38;103024.66;7381898;19;20626;-69
2022/04/30 10:15:22;;;;;;;11.02;5.05;;;;;;;9.57;82.97;103012.53;7381693;19;20048;-69
2022/04/30 10:17:57;;;;;;;9.80;4.93;;;;;;;9.47;85.58;103011.16;7382246;19;20022;-68
2022/04/30 10:20:33;;;;;;;9.10;4.95;;;;;;;9.49;87.13;103013.84;7376919;19;20045;-69
2022/04/30 10:23:05;;;;;;;12.23;5.45;;;;;;;9.75;86.47;103010.84;7381751;19;20038;-69
2022/04/30 10:25:36;;;;;;;9.75;5.40;;;;;;;9.97;86.94;103006.69;7380358;19;20013;-69
2022/04/30 10:28:07;;;;;;;12.70;6.10;;;;;;;10.06;86.21;102997.56;7381495;19;20121;-69
2022/04/30 10:30:38;;;;;;;12.13;5.85;;;;;;;10.19;84.30;102998.19;7380614;19;20018;-70
2022/04/30 10:33:12;;;;;;;11.30;5.65;;;;;;;9.96;84.93;103003.19;7383169;19;20359;-69
2022/04/30 10:35:43;;;;;;;11.25;5.88;;;;;;;9.88;85.14;102994.03;7381919;19;20063;-69
2022/04/30 10:38:15;;;;;;;13.02;6.00;;;;;;;10.10;85.51;102990.75;7380929;19;20471;-69
2022/04/30 10:40:48;;;;;;;10.55;5.50;;;;;;;10.47;85.88;102993.44;7379261;19;20018;-68
2022/04/30 10:43:20;;;;;;;12.93;6.38;;;;;;;10.48;84.48;102977.78;7382607;19;20015;-69
2022/04/30 10:45:50;;;;;;;9.10;5.55;;;;;;;10.19;81.64;102985.06;7381726;19;20035;-69
2022/04/30 10:48:22;;;;;;;9.13;5.63;;;;;;;10.28;82.22;102980.31;7382203;19;20033;-68
2022/04/30 10:51:05;;;;;;;10.38;5.43;;;;;;;10.62;83.89;102967.94;7381401;19;20014;-69
2022/04/30 10:53:36;;;;;;;11.07;4.97;;;;;;;10.83;80.81;102970.66;7374299;19;20031;-70
2022/04/30 10:56:08;;;;;;;6.60;3.88;;;;;;;10.58;76.07;102965.09;7380619;19;20014;-70
2022/04/30 10:58:41;;;;;;;6.70;3.65;;;;;;;10.34;75.75;102960.53;7382042;19;20021;-70
2022/04/30 11:01:14;;;;;;;11.57;4.55;;;;;;;10.32;76.58;102956.03;7380622;19;20078;-70
2022/04/30 11:03:49;;;;;;;8.85;4.00;;;;;;;10.29;76.46;102969.91;7380815;19;20031;-71
2022/04/30 11:06:21;;;;;;;9.63;4.05;;;;;;;10.39;76.57;102963.38;7379027;19;20010;-71
2022/04/30 11:08:59;;;;;;;9.70;4.78;;;;;;;9.79;77.39;102967.38;7380485;19;20022;-71
2022/04/30 11:11:30;;;;;;;8.60;4.55;;;;;;;10.05;78.07;102966.94;7379599;19;20007;-70
2022/04/30 11:14:04;;;;;;;8.32;4.40;;;;;;;10.57;76.26;102964.19;7380212;19;20323;-71
2022/04/30 11:16:36;;;;;;;9.73;3.88;;;;;;;10.27;73.22;102962.78;7379387;19;20017;-71
2022/04/30 11:19:11;;;;;;;9.67;4.07;;;;;;;10.71;72.07;102959.59;7380222;19;20027;-70
2022/04/30 11:21:43;;;;;;;8.35;4.18;;;;;;;11.27;70.83;102956.91;7379632;19;20006;-70
2022/04/30 11:24:13;;;;;;;9.25;3.60;;;;;;;10.84;69.47;102959.34;7380350;19;20007;-70
2022/04/30 11:26:45;;;;;;;8.13;3.55;;;;;;;10.96;68.77;102959.91;7375592;19;20011;-71
2022/04/30 11:29:16;;;;;;;7.53;3.65;;;;;;;11.14;68.23;102947.59;7379498;19;20028;-70
2022/04/30 11:31:46;;;;;;;6.07;3.22;;;;;;;10.85;67.22;102954.97;7380140;19;20010;-71
2022/04/30 11:34:19;;;;;;;6.25;3.35;;;;;;;10.97;65.76;102950.28;7378123;19;20029;-71
2022/04/30 11:36:50;;;;;;;;;;;;;;;10.97;66.45;102950.28;7379703;19;20015;-71
2022/04/30 11:39:21;;;;;;;9.25;3.47;;;;;;;10.69;66.27;102951.66;7380571;19;20333;-69
2022/04/30 11:41:52;;;;;;;7.15;3.33;;;;;;;10.92;66.51;102952.72;7380470;19;20058;-69
2022/04/30 11:44:24;;;;;;;7.28;3.67;;;;;;;10.75;66.09;102953.66;7377271;19;20038;-70
2022/04/30 11:46:55;;;;;;;4.75;3.17;;;;;;;11.18;66.03;102948.63;7378555;19;20014;-69
2022/04/30 11:49:29;;;;;;;9.60;3.45;;;;;;;11.10;65.47;102948.28;7379927;19;20017;-69
2022/04/30 11:52:09;;;;;;;7.25;3.42;;;;;;;10.97;66.31;102938.06;7374242;19;20474;-69
2022/04/30 11:54:41;;;;;;;6.80;3.17;;;;;;;10.96;65.24;102932.75;7378309;19;20013;-70
2022/04/30 11:57:11;;;;;;;6.70;3.53;;;;;;;11.33;63.26;102936.16;7379472;19;20015;-70
2022/04/30 11:59:43;;;;;;;7.32;3.17;;;;;;;11.62;61.87;102941.75;7379586;19;20010;-69
2022/04/30 12:02:15;;;;;;;5.38;2.85;;;;;;;11.73;61.30;102935.22;7379374;19;20025;-76
2022/04/30 12:04:50;;;;;;;4.45;2.35;;;;;;;11.29;61.46;102939.50;7378007;19;20499;-68
2022/04/30 12:07:20;;;;;;;6.82;3.03;;;;;;;11.85;60.29;102932.22;7378871;19;20526;-77
2022/04/30 12:09:51;;;;;;;5.50;2.40;;;;;;;12.11;58.60;102929.81;7377543;19;20035;-77
2022/04/30 12:12:23;;;;;;;4.38;2.70;;;;;;;12.27;58.79;102928.69;7378117;19;20009;-76
2022/04/30 12:14:55;;;;;;;6.13;2.75;;;;;;;12.22;57.90;102924.09;7376029;19;20017;-76
2022/04/30 12:17:29;;;;;;;6.28;2.70;;;;;;;12.53;57.51;102916.53;7374008;19;20014;-76
2022/04/30 12:25:45;;;;;;;5.80;2.60;;;;;;;12.61;57.04;102920.34;7375500;19;20082;-76
2022/04/30 12:28:15;;;;;;;4.30;2.53;;;;;;;12.02;57.63;102918.94;7373041;19;20015;-77
2022/04/30 12:30:55;;;;;;;6.50;2.78;;;;;;;12.52;57.92;102912.09;7376799;19;20035;-76